createdAt,value
2018-07-04T00:00:17.755Z,1.10
2018-07-04T00:03:11.242Z,1.10
2018-07-04T00:06:04.507Z,1.57
2018-07-04T00:08:57.913Z,1.33
2018-07-04T00:11:51.805Z,1.17
2018-07-04T00:14:45.267Z,1.10
2018-07-04T00:17:38.828Z,1.17
2018-07-04T00:20:37.446Z,1.23
2018-07-04T00:23:31.015Z,1.07
2018-07-04T00:26:24.227Z,1.40
2018-07-04T00:29:17.406Z,1.00
2018-07-04T00:32:10.786Z,0.93
2018-07-04T00:35:03.984Z,1.00
2018-07-04T00:37:58.089Z,1.67
2018-07-04T00:40:51.475Z,1.50
2018-07-04T00:43:44.849Z,1.80
2018-07-04T00:46:38.177Z,1.50
2018-07-04T00:49:31.488Z,1.20
2018-07-04T00:52:24.837Z,1.23
2018-07-04T00:55:18.189Z,1.20
2018-07-04T00:58:11.527Z,1.10
2018-07-04T01:00:58.851Z,1.10
2018-07-04T01:03:52.165Z,0.93
2018-07-04T01:06:45.305Z,1.47
2018-07-04T01:09:38.641Z,1.00
2018-07-04T01:12:31.981Z,2.03
2018-07-04T01:15:25.398Z,1.80
2018-07-04T01:18:18.750Z,1.73
2018-07-04T01:21:14.212Z,1.50
2018-07-04T01:24:07.829Z,2.60
2018-07-04T01:27:01.164Z,1.20
2018-07-04T01:29:54.624Z,1.60
2018-07-04T01:32:47.725Z,1.67
2018-07-04T01:35:41.120Z,1.00
2018-07-04T01:38:34.551Z,1.07
2018-07-04T01:41:28.005Z,1.43
2018-07-04T01:44:21.281Z,1.10
2018-07-04T01:47:14.749Z,1.27
2018-07-04T01:50:07.973Z,1.20
2018-07-04T01:53:01.438Z,1.00
2018-07-04T01:55:54.842Z,1.00
2018-07-04T01:58:48.190Z,1.23
2018-07-04T02:01:41.473Z,1.00
2018-07-04T02:04:35.046Z,1.33
2018-07-04T02:07:28.627Z,1.40
2018-07-04T02:10:22.051Z,1.43
2018-07-04T02:13:15.218Z,1.20
2018-07-04T02:16:08.536Z,1.00
2018-07-04T02:19:01.772Z,1.20
2018-07-04T02:21:55.125Z,1.30
2018-07-04T02:24:48.603Z,0.90
2018-07-04T02:27:42.053Z,1.10
2018-07-04T02:30:35.417Z,1.10
2018-07-04T02:33:28.880Z,1.30
2018-07-04T02:36:22.237Z,1.13
2018-07-04T02:39:15.755Z,1.17
2018-07-04T02:42:09.114Z,1.20
2018-07-04T02:45:02.467Z,1.43
2018-07-04T02:47:55.723Z,1.23
2018-07-04T02:50:49.116Z,1.10
2018-07-04T02:53:42.342Z,0.87
2018-07-04T02:56:35.810Z,1.10
2018-07-04T02:59:29.259Z,1.00
2018-07-04T03:02:22.733Z,1.10
2018-07-04T03:05:16.067Z,1.00
2018-07-04T03:08:09.648Z,1.13
2018-07-04T03:11:03.044Z,1.00
2018-07-04T03:13:56.499Z,0.93
2018-07-04T03:16:50.000Z,1.03
2018-07-04T03:19:43.317Z,1.20
2018-07-04T03:22:36.821Z,1.30
2018-07-04T03:25:30.059Z,1.07
2018-07-04T03:28:23.339Z,1.10
2018-07-04T03:31:16.785Z,1.40
2018-07-04T03:34:10.159Z,1.70
2018-07-04T03:37:03.616Z,1.40
2018-07-04T03:39:56.896Z,1.20
2018-07-04T03:42:50.956Z,0.90
2018-07-04T03:45:44.291Z,1.30
2018-07-04T03:48:37.913Z,1.10
2018-07-04T03:51:31.454Z,1.30
2018-07-04T03:54:24.640Z,1.40
2018-07-04T03:57:17.908Z,1.43
2018-07-04T04:00:11.450Z,1.30
2018-07-04T04:03:04.632Z,1.00
2018-07-04T04:05:57.902Z,1.10
2018-07-04T04:08:51.256Z,1.50
2018-07-04T04:11:44.716Z,1.07
2018-07-04T04:14:37.927Z,1.43
2018-07-04T04:17:31.139Z,1.20
2018-07-04T04:20:24.584Z,1.20
2018-07-04T04:23:17.898Z,1.10
2018-07-04T04:26:11.299Z,1.20
2018-07-04T04:29:04.717Z,1.37
2018-07-04T04:31:58.182Z,1.83
2018-07-04T04:34:51.379Z,1.20
2018-07-04T04:37:44.903Z,1.00
2018-07-04T04:40:38.417Z,1.30
2018-07-04T04:43:31.952Z,1.03
2018-07-04T04:46:25.227Z,1.40
2018-07-04T04:49:12.596Z,1.40
2018-07-04T04:52:06.005Z,1.20
2018-07-04T04:54:59.330Z,0.90
2018-07-04T04:57:52.713Z,1.30
2018-07-04T05:00:46.971Z,1.00
2018-07-04T05:03:40.360Z,1.30
2018-07-04T05:06:33.634Z,0.97
2018-07-04T05:09:26.919Z,1.20
2018-07-04T05:12:20.386Z,1.17
2018-07-04T05:15:13.877Z,1.00
2018-07-04T05:18:07.420Z,1.10
2018-07-04T05:21:00.898Z,1.10
2018-07-04T05:23:54.253Z,1.10
2018-07-04T05:26:47.630Z,1.10
2018-07-04T05:29:41.002Z,1.17
2018-07-04T05:32:34.324Z,0.93
2018-07-04T05:35:21.670Z,1.60
2018-07-04T05:38:15.076Z,1.37
2018-07-04T05:41:08.800Z,1.20
2018-07-04T05:44:02.368Z,1.03
2018-07-04T05:46:55.817Z,1.20
2018-07-04T05:49:49.004Z,1.03
2018-07-04T05:52:42.487Z,0.90
2018-07-04T05:55:35.812Z,0.80
2018-07-04T05:58:29.196Z,1.30
2018-07-04T06:01:22.519Z,1.10
2018-07-04T06:04:15.783Z,1.03
2018-07-04T06:07:09.178Z,1.20
2018-07-04T06:10:02.385Z,1.00
2018-07-04T06:12:55.891Z,1.47
2018-07-04T06:15:49.439Z,1.40
2018-07-04T06:18:43.865Z,1.10
2018-07-04T06:21:37.305Z,1.30
2018-07-04T06:24:30.733Z,2.27
2018-07-04T06:27:24.138Z,1.00
2018-07-04T06:30:17.700Z,1.50
2018-07-04T06:33:11.199Z,1.10
2018-07-04T06:36:04.449Z,1.20
2018-07-04T06:38:39.043Z,1.10
2018-07-04T06:41:08.031Z,1.13
2018-07-04T06:43:36.390Z,1.40
2018-07-04T06:46:04.872Z,1.00
2018-07-04T06:48:33.399Z,1.20
2018-07-04T06:51:01.867Z,1.10
2018-07-04T06:53:30.650Z,1.10
2018-07-04T06:55:59.098Z,0.97
2018-07-04T06:58:27.528Z,1.37
2018-07-04T07:00:56.031Z,1.03
2018-07-04T07:03:43.288Z,1.10
2018-07-04T07:06:36.518Z,0.97
2018-07-04T07:09:29.912Z,1.00
2018-07-04T07:12:23.673Z,1.47
2018-07-04T07:15:16.745Z,1.37
2018-07-04T07:18:10.974Z,1.10
2018-07-04T07:21:04.633Z,1.17
2018-07-04T07:23:58.260Z,1.23
2018-07-04T07:26:51.649Z,1.30
2018-07-04T07:29:44.961Z,1.60
2018-07-04T07:32:38.419Z,1.27
2018-07-04T07:35:31.762Z,1.20
2018-07-04T07:38:25.169Z,1.23
2018-07-04T07:41:18.504Z,1.23
2018-07-04T07:44:11.879Z,1.10
2018-07-04T07:47:06.607Z,1.17
2018-07-04T07:49:59.971Z,1.67
2018-07-04T07:52:53.500Z,1.30
2018-07-04T07:55:47.000Z,2.10
2018-07-04T07:58:40.504Z,1.13
2018-07-04T08:01:33.938Z,1.10
2018-07-04T08:04:28.624Z,1.00
2018-07-04T08:07:21.993Z,0.87
2018-07-04T08:10:15.282Z,1.27
2018-07-04T08:13:09.847Z,1.10
2018-07-04T08:16:03.185Z,0.97
2018-07-04T08:18:57.485Z,1.17
2018-07-04T08:21:51.060Z,3.00
2018-07-04T08:24:44.432Z,1.63
2018-07-04T08:27:38.080Z,1.00
2018-07-04T08:30:31.826Z,0.70
2018-07-04T08:33:25.596Z,1.20
2018-07-04T08:40:08.736Z,0.90
2018-07-04T08:43:02.349Z,1.17
2018-07-04T08:45:55.733Z,1.00
2018-07-04T08:48:49.178Z,0.90
2018-07-04T08:51:42.681Z,1.03
2018-07-04T08:54:36.039Z,1.10
2018-07-04T08:57:29.389Z,1.23
2018-07-04T09:00:22.700Z,0.77
2018-07-04T09:03:16.395Z,0.80
2018-07-04T09:06:09.913Z,0.97
2018-07-04T09:09:03.411Z,1.10
2018-07-04T09:11:51.048Z,1.30
2018-07-04T09:14:44.306Z,0.80
2018-07-04T09:17:38.041Z,1.00
2018-07-04T09:20:25.401Z,1.73
2018-07-04T09:23:18.448Z,1.40
2018-07-04T09:26:12.297Z,0.90
2018-07-04T09:29:05.450Z,1.00
2018-07-04T09:31:58.921Z,1.10
2018-07-04T09:34:52.168Z,1.20
2018-07-04T09:37:45.640Z,1.20
2018-07-04T09:40:39.128Z,0.93
2018-07-04T09:43:32.535Z,1.00
2018-07-04T09:46:25.834Z,1.03
2018-07-04T09:49:19.245Z,1.40
2018-07-04T09:52:12.421Z,1.40
2018-07-04T09:55:05.888Z,1.10
2018-07-04T09:57:59.143Z,1.37
2018-07-04T10:00:58.026Z,1.40
2018-07-04T10:03:51.486Z,1.17
2018-07-04T10:06:45.302Z,1.13
2018-07-04T10:09:38.709Z,1.13
2018-07-04T10:12:31.989Z,1.17
2018-07-04T10:15:25.377Z,1.30
2018-07-04T10:18:19.000Z,1.40
2018-07-04T10:21:12.159Z,1.20
2018-07-04T10:24:05.661Z,1.20
2018-07-04T10:26:59.197Z,1.60
2018-07-04T10:29:52.532Z,1.70
2018-07-04T10:32:45.860Z,1.43
2018-07-04T10:35:39.290Z,1.70
2018-07-04T10:38:32.607Z,1.77
2018-07-04T10:41:26.141Z,2.20
2018-07-04T10:44:19.514Z,1.00
2018-07-04T10:47:13.050Z,1.30
2018-07-04T10:50:06.329Z,1.53
2018-07-04T10:52:59.682Z,1.13
2018-07-04T10:55:53.091Z,1.07
2018-07-04T10:58:46.556Z,1.83
2018-07-04T11:01:40.027Z,1.20
2018-07-04T11:04:33.474Z,1.30
2018-07-04T11:07:26.817Z,1.90
2018-07-04T11:10:20.294Z,2.03
2018-07-04T11:13:17.908Z,1.87
2018-07-04T11:16:11.265Z,1.57
2018-07-04T11:19:04.994Z,1.67
2018-07-04T11:21:58.512Z,1.77
2018-07-04T11:24:51.782Z,1.50
2018-07-04T11:27:45.038Z,1.20
2018-07-04T11:30:38.354Z,1.93
2018-07-04T11:33:31.788Z,1.87
2018-07-04T11:36:25.081Z,2.27
2018-07-04T11:39:18.372Z,1.63
2018-07-04T11:42:11.554Z,1.40
2018-07-04T11:45:04.914Z,1.83
2018-07-04T11:47:39.607Z,1.80
2018-07-04T11:50:08.068Z,1.60
2018-07-04T11:52:36.741Z,1.60
2018-07-04T11:55:05.127Z,1.50
2018-07-04T11:57:33.540Z,1.50
2018-07-04T12:00:01.981Z,1.70
2018-07-04T12:02:30.548Z,1.30
2018-07-04T12:05:17.761Z,1.70
2018-07-04T12:07:52.392Z,1.50
2018-07-04T12:10:21.007Z,1.60
2018-07-04T12:12:49.585Z,1.30
2018-07-04T12:15:18.000Z,1.40
2018-07-04T12:17:46.621Z,1.30
2018-07-04T12:20:15.325Z,1.77
2018-07-04T12:22:43.838Z,1.37
2018-07-04T12:25:12.319Z,1.20
2018-07-04T12:27:40.776Z,1.40
2018-07-04T12:30:09.255Z,1.43
2018-07-04T12:32:37.708Z,1.70
2018-07-04T12:35:06.157Z,1.80
2018-07-04T12:37:34.648Z,1.10
2018-07-04T12:40:03.004Z,1.60
2018-07-04T12:42:31.466Z,1.20
2018-07-04T12:45:00.442Z,1.60
2018-07-04T12:47:28.964Z,1.37
2018-07-04T12:49:57.386Z,1.00
2018-07-04T12:52:28.884Z,1.40
2018-07-04T12:55:16.937Z,1.37
2018-07-04T12:58:10.486Z,1.30
2018-07-04T13:01:03.942Z,1.50
2018-07-04T13:03:57.597Z,1.70
2018-07-04T13:06:51.034Z,1.87
2018-07-04T13:09:44.243Z,2.30
2018-07-04T13:12:37.665Z,1.90
2018-07-04T13:15:31.102Z,1.30
2018-07-04T13:18:24.497Z,2.03
2018-07-04T13:21:18.163Z,1.77
2018-07-04T13:24:11.609Z,2.27
2018-07-04T13:27:04.969Z,2.13
2018-07-04T13:29:58.200Z,2.60
2018-07-04T13:32:51.801Z,2.07
2018-07-04T13:35:45.421Z,2.50
2018-07-04T13:38:38.849Z,2.03
2018-07-04T13:41:32.115Z,2.20
2018-07-04T13:44:19.444Z,2.50
2018-07-04T13:47:12.805Z,2.27
2018-07-04T13:50:06.365Z,2.40
2018-07-04T13:52:59.904Z,2.70
2018-07-04T13:55:53.262Z,2.50
2018-07-04T13:58:46.643Z,2.47
2018-07-04T14:01:40.149Z,2.37
2018-07-04T14:04:33.820Z,2.90
2018-07-04T14:07:27.141Z,2.50
2018-07-04T14:10:20.515Z,2.50
2018-07-04T14:13:14.010Z,2.70
2018-07-04T14:16:07.427Z,2.17
2018-07-04T14:19:00.988Z,2.40
2018-07-04T14:21:54.261Z,2.30
2018-07-04T14:24:47.642Z,2.33
2018-07-04T14:27:40.964Z,2.10
2018-07-04T14:30:34.441Z,2.53
2018-07-04T14:33:27.770Z,2.27
2018-07-04T14:36:21.271Z,2.60
2018-07-04T14:39:14.710Z,2.03
2018-07-04T14:42:08.041Z,2.53
2018-07-04T14:45:01.568Z,2.43
2018-07-04T14:47:55.081Z,1.93
2018-07-04T14:50:48.448Z,2.97
2018-07-04T14:53:42.027Z,2.60
2018-07-04T14:56:35.600Z,2.90
2018-07-04T14:59:28.954Z,2.20
2018-07-04T15:02:22.360Z,2.60
2018-07-04T15:05:15.611Z,2.10
2018-07-04T15:08:09.144Z,2.20
2018-07-04T15:11:02.607Z,2.53
2018-07-04T15:13:56.077Z,2.97
2018-07-04T15:16:49.520Z,2.50
2018-07-04T15:19:43.230Z,2.97
2018-07-04T15:22:36.657Z,2.33
2018-07-04T15:25:30.235Z,2.40
2018-07-04T15:28:23.689Z,3.00
2018-07-04T15:31:17.187Z,2.90
2018-07-04T15:34:10.445Z,2.70
2018-07-04T15:37:03.790Z,2.80
2018-07-04T15:39:57.191Z,2.67
2018-07-04T15:42:50.689Z,2.87
2018-07-04T15:45:44.147Z,2.90
2018-07-04T15:48:37.556Z,3.23
2018-07-04T15:51:30.968Z,2.70
2018-07-04T15:54:24.535Z,3.20
2018-07-04T15:57:18.120Z,3.43
2018-07-04T16:00:11.621Z,3.50
2018-07-04T16:03:05.128Z,2.57
2018-07-04T16:05:58.806Z,2.80
2018-07-04T16:08:46.023Z,3.10
2018-07-04T16:11:40.326Z,2.93
2018-07-04T16:14:33.847Z,3.50
2018-07-04T16:17:27.003Z,3.13
2018-07-04T16:20:20.425Z,4.17
2018-07-04T16:23:14.986Z,2.90
2018-07-04T16:26:08.773Z,3.37
2018-07-04T16:29:02.662Z,3.00
2018-07-04T16:31:56.249Z,3.97
2018-07-04T16:34:49.559Z,3.67
2018-07-04T16:37:42.824Z,2.93
2018-07-04T16:40:36.337Z,2.83
2018-07-04T16:43:29.760Z,2.87
2018-07-04T16:46:23.129Z,3.00
2018-07-04T16:49:16.397Z,2.53
2018-07-04T16:52:09.871Z,3.37
2018-07-04T16:55:03.278Z,5.50
2018-07-04T16:57:56.861Z,6.00
2018-07-04T17:00:50.462Z,3.13
2018-07-04T17:03:43.756Z,3.10
2018-07-04T17:06:36.958Z,2.80
2018-07-04T17:09:30.464Z,4.00
2018-07-04T17:12:23.980Z,3.00
2018-07-04T17:15:17.390Z,3.40
2018-07-04T17:18:10.804Z,3.50
2018-07-04T17:21:10.978Z,5.20
2018-07-04T17:24:04.313Z,3.70
2018-07-04T17:26:57.629Z,3.03
2018-07-04T17:29:50.899Z,2.77
2018-07-04T17:32:44.439Z,2.63
2018-07-04T17:35:37.905Z,2.60
2018-07-04T17:38:31.370Z,3.00
2018-07-04T17:41:24.955Z,2.50
2018-07-04T17:44:18.489Z,2.63
2018-07-04T17:47:12.010Z,2.50
2018-07-04T17:50:05.592Z,2.83
2018-07-04T17:52:59.055Z,3.03
2018-07-04T17:55:52.275Z,2.10
2018-07-04T17:58:45.856Z,2.47
2018-07-04T18:01:33.365Z,2.30
2018-07-04T18:04:26.804Z,2.00
2018-07-04T18:07:20.270Z,2.90
2018-07-04T18:10:13.523Z,2.60
2018-07-04T18:13:06.878Z,2.67
2018-07-04T18:16:00.319Z,2.40
2018-07-04T18:18:53.720Z,1.97
2018-07-04T18:21:47.048Z,3.13
2018-07-04T18:24:40.629Z,1.87
2018-07-04T18:27:34.064Z,2.27
2018-07-04T18:30:27.740Z,1.93
2018-07-04T18:33:21.330Z,4.20
2018-07-04T18:36:14.655Z,2.40
2018-07-04T18:39:07.990Z,1.63
2018-07-04T18:42:01.151Z,2.00
2018-07-04T18:44:54.434Z,2.27
2018-07-04T18:47:41.708Z,2.40
2018-07-04T18:50:35.526Z,2.00
2018-07-04T18:53:28.940Z,2.10
2018-07-04T18:56:22.368Z,3.17
2018-07-04T18:59:16.328Z,2.13
2018-07-04T19:02:41.492Z,2.00
2018-07-04T19:05:34.821Z,2.20
2018-07-04T19:08:28.183Z,2.90
2018-07-04T19:11:21.832Z,2.83
2018-07-04T19:14:15.351Z,3.30
2018-07-04T19:17:08.736Z,2.17
2018-07-04T19:20:01.958Z,2.27
2018-07-04T19:22:55.624Z,2.17
2018-07-04T19:25:49.040Z,4.00
2018-07-04T19:28:42.406Z,2.80
2018-07-04T19:31:35.845Z,2.30
2018-07-04T19:34:29.342Z,6.67
2018-07-04T19:37:22.799Z,2.77
2018-07-04T19:40:15.902Z,2.20
2018-07-04T19:43:09.244Z,2.80
2018-07-04T19:46:02.572Z,2.97
2018-07-04T19:48:56.476Z,2.20
2018-07-04T19:51:50.176Z,2.50
2018-07-04T19:54:43.555Z,2.57
2018-07-04T19:57:36.821Z,2.10
2018-07-04T20:00:30.216Z,2.33
2018-07-04T20:03:24.265Z,3.30
2018-07-04T20:06:17.428Z,2.00
2018-07-04T20:09:10.988Z,2.40
2018-07-04T20:15:39.136Z,2.53
2018-07-04T20:18:32.630Z,2.93
2018-07-04T20:21:26.153Z,3.40
2018-07-04T20:24:19.624Z,2.47
2018-07-04T20:27:12.965Z,3.30
2018-07-04T20:30:06.229Z,3.40
2018-07-04T20:32:59.700Z,2.60
2018-07-04T20:35:52.968Z,2.07
2018-07-04T20:38:46.362Z,2.10
2018-07-04T20:41:40.005Z,2.70
2018-07-04T20:44:33.357Z,3.17
2018-07-04T20:47:27.756Z,1.87
2018-07-04T20:50:21.669Z,2.27
2018-07-04T20:53:14.873Z,2.67
2018-07-04T20:56:08.453Z,2.43
2018-07-04T20:59:01.730Z,2.23
2018-07-04T21:01:55.797Z,2.77
2018-07-04T21:04:49.470Z,2.07
2018-07-04T21:07:43.161Z,2.07
2018-07-04T21:10:36.713Z,2.40
2018-07-04T21:13:30.430Z,2.80
2018-07-04T21:16:24.009Z,2.13
2018-07-04T21:19:17.459Z,2.73
2018-07-04T21:22:10.839Z,2.33
2018-07-04T21:25:04.382Z,2.40
2018-07-04T21:27:57.784Z,1.77
2018-07-04T21:30:51.369Z,3.07
2018-07-04T21:33:44.732Z,2.60
2018-07-04T21:36:38.238Z,2.93
2018-07-04T21:39:31.641Z,2.50
2018-07-04T21:42:25.224Z,2.03
2018-07-04T21:45:18.534Z,2.30
2018-07-04T21:48:11.798Z,2.60
2018-07-04T21:51:05.914Z,2.50
2018-07-04T21:53:59.157Z,2.77
2018-07-04T21:56:52.653Z,2.40
2018-07-04T21:59:46.042Z,2.57
2018-07-04T22:02:39.670Z,2.07
2018-07-04T22:05:33.227Z,2.10
2018-07-04T22:08:26.519Z,2.00
2018-07-04T22:11:19.836Z,2.40
2018-07-04T22:14:13.207Z,1.73
2018-07-04T22:17:06.619Z,2.53
2018-07-04T22:19:59.926Z,2.50
2018-07-04T22:22:53.297Z,2.07
2018-07-04T22:25:46.640Z,1.90
2018-07-04T22:28:40.291Z,2.27
2018-07-04T22:31:33.918Z,1.50
2018-07-04T22:34:27.375Z,2.10
2018-07-04T22:37:20.765Z,1.70
2018-07-04T22:40:14.117Z,2.60
2018-07-04T22:43:01.293Z,1.80
2018-07-04T22:45:54.572Z,2.10
2018-07-04T22:48:47.992Z,2.73
2018-07-04T22:51:41.310Z,2.30
2018-07-04T22:54:34.597Z,1.80
2018-07-04T22:57:28.043Z,2.00
2018-07-04T23:00:21.619Z,2.00
2018-07-04T23:03:15.310Z,1.73
2018-07-04T23:06:08.865Z,3.50
2018-07-04T23:09:02.240Z,1.83
2018-07-04T23:11:55.682Z,2.13
2018-07-04T23:14:49.126Z,1.70
2018-07-04T23:17:42.479Z,1.80
2018-07-04T23:20:35.740Z,2.00
2018-07-04T23:23:29.221Z,2.13
2018-07-04T23:26:22.389Z,1.93
2018-07-04T23:29:15.746Z,2.03
2018-07-04T23:32:09.050Z,1.90
2018-07-04T23:35:02.712Z,2.20
2018-07-04T23:37:56.282Z,2.33
2018-07-04T23:40:49.748Z,2.17
2018-07-04T23:43:43.312Z,2.27
2018-07-04T23:46:36.683Z,2.00
2018-07-04T23:49:30.026Z,1.70
2018-07-04T23:52:24.313Z,2.10
2018-07-04T23:55:17.740Z,1.90
2018-07-04T23:58:11.007Z,2.50
